KEAT/EAT METAR and TAF weather

Enter ICAO airport designator
Station Type Date Time Source
KEAT METAR 2019/08/22 06:55 UTC NOAA

KEAT 220655Z AUTO 31012KT 10SM CLR 20/11 A2985 RMK AO2 SLP098 T02000111 $


Station Type Date Time Source
KEAT Decoded METAR 2019/08/22 06:55 UTC NOAA

Station name not available
Aug 22, 2019 - 02:55 AM EDT / 2019.08.22 0655 UTC
Wind: from the NW (310 degrees) at 14 MPH (12 KT):0
Visibility: 10 mile(s):0
Sky conditions: clear
Temperature: 68.0 F (20.0 C)
Dew Point: 52.0 F (11.1 C)
Relative Humidity: 56%
Pressure (altimeter): 29.85 in. Hg (1010 hPa)
ob: KEAT 220655Z AUTO 31012KT 10SM CLR 20/11 A2985 RMK AO2 SLP098 T02000111
cycle: 7

Station Type Date Time Source
KEAT TAF 2019/08/22 06:34 UTC NOAA

TAF KEAT 220532Z 2206/2306 33010KT P6SM SCT080
FM222100 30006KT P6SM FEW070 SCT200
FM230200 30012KT P6SM SKC

Example: see airport list